Time;durP1;ratioP1;P1;durP2;ratioP2;P2;SDS_P1;SDS_P2;PMS_P1;PMS_P2;Temp;Humidity;BMP_temperature;BMP_pressure;BME280_temperature;BME280_humidity;BME280_pressure;Samples;Min_cycle;Max_cycle;Signal;HPM_P1;HPM_P2
2021/03/15 00:00:44;;;;;;;3.87;1.40;;;;;;;;;;5035501;28;20202;-69
2021/03/15 00:03:11;;;;;;;4.00;1.50;;;;;;;;;;5032492;28;20650;-70
2021/03/15 00:05:37;;;;;;;4.33;1.27;;;;;;;;;;5040524;28;20205;-70
2021/03/15 00:08:03;;;;;;;3.97;1.30;;;;;;;;;;5031947;28;20220;-69
2021/03/15 00:10:28;;;;;;;2.87;1.13;;;;;;;;;;5035477;28;20652;-70
2021/03/15 00:12:54;;;;;;;6.33;1.60;;;;;;;;;;5027257;28;20236;-69
2021/03/15 00:15:21;;;;;;;3.37;1.37;;;;;;;;;;5039734;28;20663;-69
2021/03/15 00:17:47;;;;;;;4.03;1.50;;;;;;;;;;5027698;28;20197;-69
2021/03/15 00:20:14;;;;;;;4.73;1.60;;;;;;;;;;5041593;28;20220;-69
2021/03/15 00:22:40;;;;;;;3.77;1.83;;;;;;;;;;5025916;28;20778;-69
2021/03/15 00:25:07;;;;;;;5.80;2.30;;;;;;;;;;5043161;28;20177;-69
2021/03/15 00:27:33;;;;;;;3.20;1.83;;;;;;;;;;5027499;28;20265;-69
2021/03/15 00:29:59;;;;;;;2.93;1.70;;;;;;;;;;5032963;28;20288;-69
2021/03/15 00:32:25;;;;;;;7.60;1.90;;;;;;;;;;5033622;28;20593;-69
2021/03/15 00:34:50;;;;;;;5.60;2.70;;;;;;;;;;5026994;28;20186;-69
2021/03/15 00:37:15;;;;;;;5.20;2.20;;;;;;;;;;5040732;28;20189;-69
2021/03/15 00:39:41;;;;;;;6.20;2.23;;;;;;;;;;5024925;28;20290;-69
2021/03/15 00:42:07;;;;;;;7.20;2.97;;;;;;;;;;5043995;28;20284;-69
2021/03/15 00:44:33;;;;;;;8.60;2.80;;;;;;;;;;5030849;28;21652;-69
2021/03/15 00:46:59;;;;;;;4.70;2.70;;;;;;;;;;5042676;28;20533;-69
2021/03/15 00:49:25;;;;;;;6.03;3.03;;;;;;;;;;5030796;28;20198;-69
2021/03/15 00:51:50;;;;;;;9.47;3.47;;;;;;;;;;5037896;28;20261;-69
2021/03/15 00:54:15;;;;;;;5.93;2.90;;;;;;;;;;5029831;28;20250;-69
2021/03/15 00:56:41;;;;;;;7.63;3.20;;;;;;;;;;5035183;28;20555;-69
2021/03/15 00:59:06;;;;;;;8.10;3.00;;;;;;;;;;5026679;28;20214;-69
2021/03/15 01:01:31;;;;;;;7.80;3.47;;;;;;;;;;5031938;28;21681;-69
2021/03/15 01:03:57;;;;;;;10.60;4.27;;;;;;;;;;5038946;28;20213;-69
2021/03/15 01:06:22;;;;;;;12.27;4.53;;;;;;;;;;5029303;28;20180;-69
2021/03/15 01:08:47;;;;;;;11.57;4.50;;;;;;;;;;5037573;28;20189;-69
2021/03/15 01:11:13;;;;;;;12.50;5.00;;;;;;;;;;5034154;28;20189;-69
2021/03/15 01:13:39;;;;;;;13.80;4.83;;;;;;;;;;5034821;28;20244;-69
2021/03/15 01:16:05;;;;;;;10.87;4.90;;;;;;;;;;5028734;28;20553;-69
2021/03/15 01:18:31;;;;;;;14.03;4.87;;;;;;;;;;5035146;28;20247;-69
2021/03/15 01:20:56;;;;;;;9.33;5.37;;;;;;;;;;5031212;28;20276;-70
2021/03/15 01:23:22;;;;;;;12.93;5.43;;;;;;;;;;5034644;28;20245;-71
2021/03/15 01:25:47;;;;;;;9.07;5.00;;;;;;;;;;5025924;28;20190;-72
2021/03/15 01:28:15;;;;;;;10.60;5.23;;;;;;;;;;5040484;28;20202;-73
2021/03/15 01:30:43;;;;;;;12.83;5.00;;;;;;;;;;5029148;28;20568;-71
2021/03/15 01:33:08;;;;;;;11.17;4.60;;;;;;;;;;5035785;28;20338;-70
2021/03/15 01:35:34;;;;;;;10.97;4.90;;;;;;;;;;5037236;28;20173;-70
2021/03/15 01:38:00;;;;;;;10.50;4.93;;;;;;;;;;5030771;28;20564;-70
2021/03/15 01:40:26;;;;;;;7.57;4.90;;;;;;;;;;5038864;28;20225;-70
2021/03/15 01:42:52;;;;;;;8.93;4.97;;;;;;;;;;5030673;28;20221;-70
2021/03/15 01:45:17;;;;;;;9.23;4.83;;;;;;;;;;5036464;28;20200;-69
2021/03/15 01:47:44;;;;;;;10.30;5.17;;;;;;;;;;5027008;28;20194;-69
2021/03/15 01:50:11;;;;;;;13.00;5.57;;;;;;;;;;5035838;28;20185;-69
2021/03/15 01:52:38;;;;;;;9.63;5.60;;;;;;;;;;5031393;28;20220;-69
2021/03/15 01:55:05;;;;;;;11.97;5.93;;;;;;;;;;5035149;28;20193;-68
2021/03/15 01:57:31;;;;;;;10.03;6.10;;;;;;;;;;5028959;28;20657;-68
2021/03/15 01:59:57;;;;;;;10.77;5.77;;;;;;;;;;5036564;28;20178;-69
2021/03/15 02:02:22;;;;;;;10.03;5.47;;;;;;;;;;5032578;28;20228;-69
2021/03/15 02:04:47;;;;;;;9.97;5.80;;;;;;;;;;5041234;28;20202;-69
2021/03/15 02:07:13;;;;;;;14.27;5.67;;;;;;;;;;5039615;28;20193;-69
2021/03/15 02:09:38;;;;;;;11.20;6.10;;;;;;;;;;5024917;28;20652;-69
2021/03/15 02:12:10;;;;;;;12.67;6.30;;;;;;;;;;5042601;28;20660;-69
2021/03/15 02:14:52;;;;;;;14.17;6.27;;;;;;;;;;5031872;28;20582;-69
2021/03/15 02:17:39;;;;;;;14.40;6.20;;;;;;;;;;5041581;28;20565;-69
2021/03/15 02:20:32;;;;;;;15.23;5.90;;;;;;;;;;5028398;28;20208;-69
2021/03/15 02:23:05;;;;;;;11.03;5.87;;;;;;;;;;5041877;28;20214;-70
2021/03/15 02:26:03;;;;;;;8.70;5.43;;;;;;;;;;5035741;28;20219;-70
2021/03/15 02:28:40;;;;;;;11.83;5.70;;;;;;;;;;5039846;28;20671;-70
2021/03/15 02:31:27;;;;;;;13.23;5.53;;;;;;;;;;5041279;28;20649;-70
2021/03/15 02:34:30;;;;;;;12.03;5.57;;;;;;;;;;5033611;28;20504;-70
2021/03/15 02:36:58;;;;;;;10.97;5.40;;;;;;;;;;5038226;28;20193;-69
2021/03/15 02:39:28;;;;;;;12.97;5.70;;;;;;;;;;5030361;28;20252;-69
2021/03/15 02:41:57;;;;;;;10.97;5.67;;;;;;;;;;5042904;28;20257;-69
2021/03/15 02:44:23;;;;;;;8.80;5.03;;;;;;;;;;5036680;28;20186;-69
2021/03/15 02:46:50;;;;;;;8.43;5.00;;;;;;;;;;5033968;28;20220;-69
2021/03/15 02:49:17;;;;;;;8.87;5.10;;;;;;;;;;5040779;28;20186;-69
2021/03/15 02:51:43;;;;;;;10.53;5.00;;;;;;;;;;5033386;28;20181;-68
2021/03/15 02:54:10;;;;;;;9.90;5.23;;;;;;;;;;5035884;28;20588;-69
2021/03/15 02:56:41;;;;;;;8.83;4.77;;;;;;;;;;5030414;28;20186;-68
2021/03/15 02:59:08;;;;;;;7.87;4.53;;;;;;;;;;5041485;28;20563;-69
2021/03/15 03:01:34;;;;;;;8.17;4.70;;;;;;;;;;5027236;28;20209;-69
2021/03/15 03:04:01;;;;;;;6.93;4.77;;;;;;;;;;5041746;28;20212;-68
2021/03/15 03:06:30;;;;;;;6.70;4.27;;;;;;;;;;5032991;28;20197;-68
2021/03/15 03:08:59;;;;;;;9.90;4.33;;;;;;;;;;5034057;28;20574;-68
2021/03/15 03:11:27;;;;;;;7.50;3.87;;;;;;;;;;5035372;28;20196;-68
2021/03/15 03:13:54;;;;;;;6.70;4.20;;;;;;;;;;5043590;28;20315;-68
2021/03/15 03:16:21;;;;;;;6.13;3.70;;;;;;;;;;5032115;28;20498;-68
2021/03/15 03:18:51;;;;;;;8.10;4.23;;;;;;;;;;5038198;28;20200;-68
2021/03/15 03:21:20;;;;;;;8.37;4.17;;;;;;;;;;5045679;28;20196;-68
2021/03/15 03:23:48;;;;;;;7.17;3.93;;;;;;;;;;5032650;28;20342;-68
2021/03/15 03:26:14;;;;;;;5.43;3.67;;;;;;;;;;5036939;28;20201;-68
2021/03/15 03:28:41;;;;;;;6.63;3.27;;;;;;;;;;5027397;28;20200;-68
2021/03/15 03:31:07;;;;;;;10.10;4.00;;;;;;;;;;5034453;28;20240;-68
2021/03/15 03:33:33;;;;;;;6.43;3.73;;;;;;;;;;5029658;28;20192;-68
2021/03/15 03:35:58;;;;;;;5.97;3.50;;;;;;;;;;5037163;28;20190;-68
2021/03/15 03:38:24;;;;;;;6.83;3.50;;;;;;;;;;5030803;28;20590;-68
2021/03/15 03:40:49;;;;;;;6.63;3.73;;;;;;;;;;5042901;28;20644;-68
2021/03/15 03:43:15;;;;;;;7.73;3.97;;;;;;;;;;5029805;28;20210;-68
2021/03/15 03:45:40;;;;;;;8.87;3.70;;;;;;;;;;5035747;28;20587;-68
2021/03/15 03:48:07;;;;;;;11.00;4.00;;;;;;;;;;5028705;28;20203;-68
2021/03/15 03:50:34;;;;;;;7.67;3.77;;;;;;;;;;5043789;28;20229;-68
2021/03/15 03:53:10;;;;;;;9.47;4.30;;;;;;;;;;5034996;28;20193;-68
2021/03/15 03:55:59;;;;;;;8.93;3.97;;;;;;;;;;5044644;28;20543;-68
2021/03/15 03:58:30;;;;;;;5.97;4.00;;;;;;;;;;5027356;28;20197;-68
2021/03/15 04:00:57;;;;;;;6.77;3.87;;;;;;;;;;5039783;28;20189;-69
2021/03/15 04:03:24;;;;;;;6.63;3.97;;;;;;;;;;5035636;28;20225;-68
2021/03/15 04:05:52;;;;;;;14.60;4.33;;;;;;;;;;5032514;28;20209;-68
2021/03/15 04:08:29;;;;;;;8.43;3.90;;;;;;;;;;5037643;28;20240;-68
2021/03/15 04:10:57;;;;;;;7.33;4.40;;;;;;;;;;5033637;28;20193;-68
2021/03/15 04:13:27;;;;;;;9.33;4.60;;;;;;;;;;5034930;28;20366;-68
2021/03/15 04:15:53;;;;;;;14.03;4.53;;;;;;;;;;5035445;28;20193;-68
2021/03/15 04:18:29;;;;;;;9.27;4.30;;;;;;;;;;5035850;28;20703;-68
2021/03/15 04:20:57;;;;;;;11.00;4.70;;;;;;;;;;5031881;28;20537;-68
2021/03/15 04:23:34;;;;;;;9.57;4.50;;;;;;;;;;5038210;28;20613;-68
2021/03/15 04:26:00;;;;;;;11.47;5.47;;;;;;;;;;5032036;28;20196;-68
2021/03/15 04:28:31;;;;;;;13.30;4.90;;;;;;;;;;5037251;28;20189;-68
2021/03/15 04:30:57;;;;;;;11.37;5.07;;;;;;;;;;5032113;28;20269;-69
2021/03/15 04:33:23;;;;;;;12.20;5.80;;;;;;;;;;5034643;28;20570;-68
2021/03/15 04:35:49;;;;;;;12.73;5.50;;;;;;;;;;5029192;28;20193;-69
2021/03/15 04:38:15;;;;;;;12.73;5.87;;;;;;;;;;5039594;28;20189;-68
2021/03/15 04:40:45;;;;;;;12.73;5.80;;;;;;;;;;5036186;28;20244;-68
2021/03/15 04:43:11;;;;;;;12.47;6.10;;;;;;;;;;5035747;28;20202;-68
2021/03/15 04:45:48;;;;;;;12.33;5.77;;;;;;;;;;5033119;28;20193;-68
2021/03/15 04:48:23;;;;;;;13.50;6.20;;;;;;;;;;5040731;28;20177;-71
2021/03/15 04:50:53;;;;;;;18.87;6.83;;;;;;;;;;5041751;28;20774;-68
2021/03/15 04:53:20;;;;;;;17.10;6.60;;;;;;;;;;5026828;28;20200;-68
2021/03/15 04:55:45;;;;;;;12.20;7.43;;;;;;;;;;5036761;28;20200;-68
2021/03/15 04:58:14;;;;;;;18.43;6.50;;;;;;;;;;5032215;28;20186;-68
2021/03/15 05:00:43;;;;;;;16.97;7.23;;;;;;;;;;5033278;28;20606;-68
2021/03/15 05:03:14;;;;;;;12.97;6.43;;;;;;;;;;5029369;28;20209;-68
2021/03/15 05:05:41;;;;;;;17.47;6.73;;;;;;;;;;5035895;28;20211;-70
2021/03/15 05:08:09;;;;;;;19.53;7.37;;;;;;;;;;5032897;28;20268;-69
2021/03/15 05:10:35;;;;;;;16.67;6.80;;;;;;;;;;5042994;28;20198;-69
2021/03/15 05:13:04;;;;;;;16.40;6.80;;;;;;;;;;5029463;28;20181;-69
2021/03/15 05:15:30;;;;;;;16.27;7.23;;;;;;;;;;5032746;28;20251;-69
2021/03/15 05:17:56;;;;;;;21.33;7.63;;;;;;;;;;5033221;28;20653;-69
2021/03/15 05:20:24;;;;;;;15.70;6.77;;;;;;;;;;5031648;28;20192;-69
2021/03/15 05:22:50;;;;;;;13.30;6.40;;;;;;;;;;5028061;28;20217;-69
2021/03/15 05:25:19;;;;;;;14.60;6.77;;;;;;;;;;5036956;28;20308;-69
2021/03/15 05:27:45;;;;;;;14.07;7.10;;;;;;;;;;5034325;28;20193;-69
2021/03/15 05:30:13;;;;;;;22.63;7.50;;;;;;;;;;5029930;28;20562;-69
2021/03/15 05:32:46;;;;;;;18.83;6.70;;;;;;;;;;5034415;28;20224;-69
2021/03/15 05:35:14;;;;;;;20.10;7.07;;;;;;;;;;5028020;28;20613;-69
2021/03/15 05:37:40;;;;;;;19.07;7.17;;;;;;;;;;5031166;28;20194;-69
2021/03/15 05:40:10;;;;;;;18.50;7.00;;;;;;;;;;5021997;28;20308;-69
2021/03/15 05:43:04;;;;;;;18.13;6.57;;;;;;;;;;5032269;28;20297;-69
2021/03/15 05:45:43;;;;;;;18.33;6.50;;;;;;;;;;5025754;28;20205;-69
2021/03/15 05:48:55;;;;;;;17.97;6.33;;;;;;;;;;5029921;28;20178;-69
2021/03/15 05:51:48;;;;;;;17.67;7.30;;;;;;;;;;5032243;28;20657;-69
2021/03/15 05:54:33;;;;;;;21.07;6.70;;;;;;;;;;5023606;28;20247;-69
2021/03/15 05:57:32;;;;;;;22.67;6.90;;;;;;;;;;5034406;28;20196;-69
2021/03/15 06:00:25;;;;;;;22.60;6.60;;;;;;;;;;5018931;28;20233;-69
2021/03/15 06:03:11;;;;;;;18.77;7.73;;;;;;;;;;5023734;28;20237;-69
2021/03/15 06:05:42;;;;;;;25.93;7.97;;;;;;;;;;5023340;28;20341;-69
2021/03/15 06:08:17;;;;;;;19.77;7.33;;;;;;;;;;5030548;28;20223;-69
2021/03/15 06:10:56;;;;;;;22.00;7.20;;;;;;;;;;5022297;28;20652;-69
2021/03/15 06:13:22;;;;;;;19.53;7.50;;;;;;;;;;5036524;28;20173;-70
2021/03/15 06:15:50;;;;;;;19.63;7.30;;;;;;;;;;5024545;28;20201;-69
2021/03/15 06:18:16;;;;;;;25.70;7.20;;;;;;;;;;5035066;28;20248;-69
2021/03/15 06:20:48;;;;;;;26.97;7.40;;;;;;;;;;5030695;28;20189;-70
2021/03/15 06:23:16;;;;;;;21.37;7.60;;;;;;;;;;5032577;28;20661;-69
2021/03/15 06:25:47;;;;;;;24.87;6.63;;;;;;;;;;5029338;28;20276;-69
2021/03/15 06:28:13;;;;;;;24.37;6.90;;;;;;;;;;5030474;28;20180;-69
2021/03/15 06:30:40;;;;;;;20.67;6.37;;;;;;;;;;5038662;28;20224;-69
2021/03/15 06:33:05;;;;;;;15.00;5.73;;;;;;;;;;5025637;28;20202;-69
2021/03/15 06:35:44;;;;;;;18.47;5.97;;;;;;;;;;5038467;28;20204;-69
2021/03/15 06:38:10;;;;;;;17.13;5.47;;;;;;;;;;5027699;28;20192;-69
2021/03/15 06:40:39;;;;;;;21.23;5.57;;;;;;;;;;5037762;28;20230;-69
2021/03/15 06:43:05;;;;;;;17.47;5.33;;;;;;;;;;5034912;28;20201;-69
2021/03/15 06:45:31;;;;;;;21.00;5.57;;;;;;;;;;5040870;28;20231;-69
2021/03/15 06:47:57;;;;;;;23.57;5.80;;;;;;;;;;5029062;28;20220;-68
2021/03/15 06:50:23;;;;;;;23.83;6.00;;;;;;;;;;4337982;28;10000773;-68
2021/03/15 06:52:52;;;;;;;21.10;5.80;;;;;;;;;;5027541;28;20212;-69
2021/03/15 06:55:21;;;;;;;27.00;5.20;;;;;;;;;;5034837;28;20193;-69
2021/03/15 06:57:47;;;;;;;17.10;5.67;;;;;;;;;;5031172;28;24197;-69
2021/03/15 07:00:13;;;;;;;17.90;5.37;;;;;;;;;;5039136;28;20198;-69
2021/03/15 07:02:40;;;;;;;19.43;4.57;;;;;;;;;;5032840;28;20267;-69
2021/03/15 07:05:10;;;;;;;25.10;6.20;;;;;;;;;;5032595;28;20244;-68
2021/03/15 07:07:38;;;;;;;16.23;4.27;;;;;;;;;;5035046;28;20247;-68
2021/03/15 07:10:17;;;;;;;24.90;4.23;;;;;;;;;;5028765;28;20216;-68
2021/03/15 07:12:42;;;;;;;25.97;4.50;;;;;;;;;;5036283;28;20194;-69
2021/03/15 07:15:09;;;;;;;20.17;5.17;;;;;;;;;;5021903;28;20554;-69
2021/03/15 07:17:35;;;;;;;17.67;3.97;;;;;;;;;;5039090;28;20240;-70
2021/03/15 07:20:00;;;;;;;19.13;3.77;;;;;;;;;;5033201;28;20736;-69
2021/03/15 07:22:28;;;;;;;20.87;4.93;;;;;;;;;;5038219;28;20661;-69
2021/03/15 07:25:11;;;;;;;23.93;3.70;;;;;;;;;;5029709;28;20292;-69
2021/03/15 07:27:39;;;;;;;20.63;4.03;;;;;;;;;;5033743;28;20185;-70
2021/03/15 07:30:42;;;;;;;19.97;4.10;;;;;;;;;;5030305;28;20262;-69
2021/03/15 07:33:20;;;;;;;19.37;3.77;;;;;;;;;;5038234;28;20197;-70
2021/03/15 07:35:47;;;;;;;23.07;3.40;;;;;;;;;;5029270;28;20185;-69
2021/03/15 07:38:13;;;;;;;16.87;3.30;;;;;;;;;;5042932;28;20213;-70
2021/03/15 07:40:40;;;;;;;17.50;3.23;;;;;;;;;;5029858;28;20255;-70
2021/03/15 07:43:06;;;;;;;24.03;3.70;;;;;;;;;;5036288;28;20220;-72
2021/03/15 07:45:38;;;;;;;19.43;4.20;;;;;;;;;;5031877;28;20204;-70
2021/03/15 07:48:11;;;;;;;19.37;3.57;;;;;;;;;;5041663;28;20221;-70
2021/03/15 07:50:37;;;;;;;26.53;3.57;;;;;;;;;;5035944;28;20193;-69
2021/03/15 07:53:06;;;;;;;26.63;3.60;;;;;;;;;;5038367;28;20535;-69
2021/03/15 07:55:39;;;;;;;21.80;2.90;;;;;;;;;;5031605;28;20239;-70
2021/03/15 07:58:28;;;;;;;20.40;2.90;;;;;;;;;;5043521;28;20186;-69
2021/03/15 08:00:55;;;;;;;22.13;3.60;;;;;;;;;;5023865;28;20265;-70
2021/03/15 08:03:24;;;;;;;18.17;2.90;;;;;;;;;;5035147;28;20275;-70
2021/03/15 08:05:54;;;;;;;26.37;3.27;;;;;;;;;;5034951;28;20223;-68
2021/03/15 08:08:19;;;;;;;35.30;3.17;;;;;;;;;;5035282;28;20297;-70
2021/03/15 08:10:45;;;;;;;12.13;2.57;;;;;;;;;;5040731;28;20692;-70
2021/03/15 08:13:12;;;;;;;18.27;2.93;;;;;;;;;;5032562;28;20669;-69
2021/03/15 08:15:39;;;;;;;20.80;2.73;;;;;;;;;;5039808;28;20260;-69
2021/03/15 08:18:07;;;;;;;14.90;3.33;;;;;;;;;;5031450;28;20273;-69
2021/03/15 08:20:35;;;;;;;21.27;2.53;;;;;;;;;;5041680;28;20209;-69
2021/03/15 08:23:02;;;;;;;18.57;3.13;;;;;;;;;;5033025;28;20211;-69
2021/03/15 08:25:28;;;;;;;15.83;2.20;;;;;;;;;;5037282;28;20174;-69
2021/03/15 08:28:00;;;;;;;19.70;2.73;;;;;;;;;;5035029;28;20193;-70
2021/03/15 08:30:29;;;;;;;23.70;3.30;;;;;;;;;;5038350;28;20264;-70
2021/03/15 08:32:55;;;;;;;17.30;2.63;;;;;;;;;;5030503;28;20173;-69
2021/03/15 08:35:22;;;;;;;13.47;1.97;;;;;;;;;;5036186;28;20189;-68
2021/03/15 08:38:03;;;;;;;17.70;1.97;;;;;;;;;;5026829;28;20200;-69
2021/03/15 08:40:43;;;;;;;15.63;2.77;;;;;;;;;;5039097;28;20229;-72
2021/03/15 08:43:18;;;;;;;8.63;1.70;;;;;;;;;;5029627;28;20209;-70
2021/03/15 08:45:47;;;;;;;18.10;2.40;;;;;;;;;;5041641;28;20208;-69
2021/03/15 08:48:13;;;;;;;13.80;1.63;;;;;;;;;;5030893;28;20194;-70
2021/03/15 08:50:38;;;;;;;15.80;2.10;;;;;;;;;;5040960;28;20229;-69
2021/03/15 08:53:03;;;;;;;11.53;2.00;;;;;;;;;;5038907;28;20185;-69
2021/03/15 08:55:48;;;;;;;15.07;2.20;;;;;;;;;;5025261;28;20237;-68
2021/03/15 08:58:35;;;;;;;15.07;2.03;;;;;;;;;;5040813;28;20204;-69
2021/03/15 09:01:02;;;;;;;13.47;1.93;;;;;;;;;;5033200;28;20189;-68
2021/03/15 09:03:49;;;;;;;20.60;2.50;;;;;;;;;;5039228;28;20308;-68
2021/03/15 09:06:37;;;;;;;12.47;1.93;;;;;;;;;;5028152;28;20204;-69
2021/03/15 09:09:08;;;;;;;10.03;1.70;;;;;;;;;;5036503;28;20527;-69
2021/03/15 09:11:33;;;;;;;13.30;2.57;;;;;;;;;;5036958;28;20189;-69
2021/03/15 09:14:30;;;;;;;10.60;1.80;;;;;;;;;;5036301;28;20185;-70
2021/03/15 09:17:00;;;;;;;12.10;1.60;;;;;;;;;;5038258;28;20193;-69
2021/03/15 09:19:27;;;;;;;14.33;2.00;;;;;;;;;;5036794;28;20183;-70
2021/03/15 09:21:53;;;;;;;16.00;1.80;;;;;;;;;;5033301;28;20288;-68
2021/03/15 09:24:39;;;;;;;10.77;1.57;;;;;;;;;;5035521;28;20193;-69
2021/03/15 09:27:28;;;;;;;8.87;1.60;;;;;;;;;;5031808;28;20192;-69
2021/03/15 09:30:06;;;;;;;14.17;1.60;;;;;;;;;;5033289;28;20201;-69
2021/03/15 09:32:34;;;;;;;9.17;1.40;;;;;;;;;;5031856;28;20200;-69
2021/03/15 09:35:20;;;;;;;14.80;2.20;;;;;;;;;;5034333;28;20528;-69
2021/03/15 09:37:56;;;;;;;13.93;2.10;;;;;;;;;;5028030;28;20201;-69
2021/03/15 09:40:42;;;;;;;17.57;2.00;;;;;;;;;;5038353;28;20233;-69
2021/03/15 09:43:08;;;;;;;12.27;2.33;;;;;;;;;;5027154;28;20262;-69
2021/03/15 09:45:41;;;;;;;13.70;1.80;;;;;;;;;;5040995;28;20190;-69
2021/03/15 09:48:23;;;;;;;10.27;2.13;;;;;;;;;;5030148;28;20239;-69
2021/03/15 09:50:54;;;;;;;7.93;1.50;;;;;;;;;;5036144;28;20186;-69
2021/03/15 09:53:21;;;;;;;15.40;2.10;;;;;;;;;;5029078;28;20181;-69
2021/03/15 09:55:47;;;;;;;18.57;2.03;;;;;;;;;;5033792;28;20741;-69
2021/03/15 09:58:14;;;;;;;22.03;2.30;;;;;;;;;;5027453;28;20213;-69
2021/03/15 10:00:44;;;;;;;13.90;2.17;;;;;;;;;;5038138;28;20192;-68
2021/03/15 10:03:23;;;;;;;14.03;2.40;;;;;;;;;;5024620;28;20287;-69
2021/03/15 10:05:54;;;;;;;10.43;1.60;;;;;;;;;;5043701;28;20637;-69
2021/03/15 10:08:24;;;;;;;13.13;1.87;;;;;;;;;;5030165;28;20491;-69
2021/03/15 10:10:50;;;;;;;22.63;4.43;;;;;;;;;;5041923;28;20186;-68
2021/03/15 10:13:16;;;;;;;20.80;2.50;;;;;;;;;;5035468;28;20200;-69
2021/03/15 10:15:41;;;;;;;20.57;2.90;;;;;;;;;;5039673;28;20485;-69
2021/03/15 10:18:07;;;;;;;14.90;2.27;;;;;;;;;;5031668;28;20327;-68
2021/03/15 10:20:34;;;;;;;24.60;2.77;;;;;;;;;;5042761;28;20189;-68
2021/03/15 10:23:20;;;;;;;21.73;3.60;;;;;;;;;;5031509;28;20214;-69
2021/03/15 10:26:01;;;;;;;14.53;2.23;;;;;;;;;;5043398;28;20280;-69
2021/03/15 10:28:28;;;;;;;9.93;1.60;;;;;;;;;;5035960;28;20726;-69
2021/03/15 10:30:53;;;;;;;14.03;2.30;;;;;;;;;;5042788;28;20204;-68
2021/03/15 10:33:22;;;;;;;16.30;2.53;;;;;;;;;;5042437;28;20190;-69
2021/03/15 10:35:49;;;;;;;15.70;2.30;;;;;;;;;;5035338;28;20181;-69
2021/03/15 10:38:17;;;;;;;11.33;2.23;;;;;;;;;;5034901;28;20194;-69
2021/03/15 10:40:43;;;;;;;11.93;2.50;;;;;;;;;;5031206;28;20237;-69
2021/03/15 10:43:15;;;;;;;12.93;2.57;;;;;;;;;;5041616;28;20245;-69
2021/03/15 10:45:41;;;;;;;12.13;2.33;;;;;;;;;;5033819;28;20563;-69
2021/03/15 10:48:07;;;;;;;15.00;2.00;;;;;;;;;;5036930;28;20193;-70
2021/03/15 10:50:37;;;;;;;15.70;1.93;;;;;;;;;;5025725;28;20724;-69
2021/03/15 10:53:17;;;;;;;11.70;2.20;;;;;;;;;;5038832;28;20462;-69
2021/03/15 10:55:43;;;;;;;12.73;2.23;;;;;;;;;;5027519;28;20564;-69
2021/03/15 10:58:12;;;;;;;11.17;2.20;;;;;;;;;;5034321;28;20194;-69
2021/03/15 11:00:46;;;;;;;14.50;1.80;;;;;;;;;;5028071;28;20197;-69
2021/03/15 11:03:29;;;;;;;16.63;2.70;;;;;;;;;;5034075;28;20204;-69
2021/03/15 11:06:17;;;;;;;12.50;2.70;;;;;;;;;;5030213;28;20193;-69
2021/03/15 11:08:52;;;;;;;14.60;2.10;;;;;;;;;;5041886;28;20186;-69
2021/03/15 11:11:20;;;;;;;13.17;2.20;;;;;;;;;;5037706;28;20687;-69
2021/03/15 11:13:47;;;;;;;17.80;2.27;;;;;;;;;;5034108;28;20190;-69
2021/03/15 11:16:16;;;;;;;17.70;2.23;;;;;;;;;;5028208;28;20280;-69
2021/03/15 11:18:42;;;;;;;14.57;1.90;;;;;;;;;;5035642;28;20186;-69
2021/03/15 11:21:11;;;;;;;10.00;2.00;;;;;;;;;;5032907;28;20649;-69
2021/03/15 11:23:44;;;;;;;12.37;1.83;;;;;;;;;;5038803;28;20205;-69
2021/03/15 11:26:13;;;;;;;11.40;1.57;;;;;;;;;;5033054;28;20196;-69
2021/03/15 11:28:47;;;;;;;9.03;1.50;;;;;;;;;;5037833;28;20518;-69
2021/03/15 11:31:21;;;;;;;13.03;2.10;;;;;;;;;;5037802;28;20700;-69
2021/03/15 11:33:57;;;;;;;10.07;1.73;;;;;;;;;;5024233;28;20276;-69
2021/03/15 11:36:31;;;;;;;18.53;2.30;;;;;;;;;;5037892;28;20198;-69
2021/03/15 11:39:16;;;;;;;13.27;2.30;;;;;;;;;;5036451;28;20962;-68
2021/03/15 11:41:42;;;;;;;12.53;1.83;;;;;;;;;;5037662;28;20193;-67
2021/03/15 11:44:08;;;;;;;14.97;2.00;;;;;;;;;;5036399;28;20186;-68
2021/03/15 11:46:34;;;;;;;13.10;2.60;;;;;;;;;;5039938;28;20495;-68
2021/03/15 11:49:00;;;;;;;12.47;2.00;;;;;;;;;;5031311;28;20197;-68
2021/03/15 11:51:25;;;;;;;13.47;2.10;;;;;;;;;;5039350;28;20947;-69
2021/03/15 11:53:51;;;;;;;9.10;1.90;;;;;;;;;;5042294;28;20186;-69
2021/03/15 11:56:16;;;;;;;10.47;1.73;;;;;;;;;;5038090;28;20249;-69
2021/03/15 11:58:43;;;;;;;12.90;2.63;;;;;;;;;;5031125;28;20189;-68
2021/03/15 12:01:09;;;;;;;13.40;1.93;;;;;;;;;;5035463;28;20235;-68
2021/03/15 12:03:35;;;;;;;10.90;1.83;;;;;;;;;;5032535;28;20217;-69
2021/03/15 12:06:02;;;;;;;13.00;1.87;;;;;;;;;;5041429;28;20186;-68
2021/03/15 12:08:28;;;;;;;13.40;2.27;;;;;;;;;;5029923;28;20186;-69
2021/03/15 12:10:54;;;;;;;13.80;2.30;;;;;;;;;;5041203;28;20744;-69
2021/03/15 12:13:21;;;;;;;13.77;2.23;;;;;;;;;;5035212;28;20188;-69
2021/03/15 12:15:46;;;;;;;17.30;2.70;;;;;;;;;;5035479;28;20197;-69
2021/03/15 12:18:12;;;;;;;19.73;2.70;;;;;;;;;;5038889;28;20251;-69
2021/03/15 12:20:40;;;;;;;13.87;2.27;;;;;;;;;;5028949;28;20190;-68
2021/03/15 12:23:06;;;;;;;15.80;3.20;;;;;;;;;;5038046;28;20209;-68
2021/03/15 12:25:33;;;;;;;13.47;2.30;;;;;;;;;;5028500;28;20216;-69
2021/03/15 12:27:59;;;;;;;15.50;2.40;;;;;;;;;;5043228;28;21052;-69
2021/03/15 12:30:25;;;;;;;12.27;2.40;;;;;;;;;;5028666;28;20672;-69
2021/03/15 12:32:50;;;;;;;18.17;3.15;;;;;;;;;;5042687;28;20273;-70
2021/03/15 12:35:16;;;;;;;17.70;2.92;;;;;;;;;;5029447;28;20264;-68
2021/03/15 12:37:42;;;;;;;17.17;2.42;;;;;;;;;;5044271;28;20664;-68
2021/03/15 12:40:08;;;;;;;16.35;2.50;;;;;;;;;;5030000;28;20306;-68
2021/03/15 12:42:34;;;;;;;11.93;2.15;;;;;;;;;;5037698;28;20210;-68
2021/03/15 12:45:00;;;;;;;18.48;2.60;;;;;;;;;;5036306;28;20190;-68
2021/03/15 12:47:25;;;;;;;15.98;3.00;;;;;;;;;;5029430;28;20189;-68
2021/03/15 12:49:51;;;;;;;15.45;2.88;;;;;;;;;;5036661;28;20361;-67
2021/03/15 12:52:17;;;;;;;18.20;3.60;;;;;;;;;;5031414;28;20645;-67
2021/03/15 12:54:43;;;;;;;19.77;2.95;;;;;;;;;;5032384;28;20189;-68
2021/03/15 12:57:08;;;;;;;24.85;3.65;;;;;;;;;;5035542;28;20539;-68
2021/03/15 12:59:33;;;;;;;14.32;2.80;;;;;;;;;;5035247;28;20190;-69
2021/03/15 13:01:59;;;;;;;16.53;3.20;;;;;;;;;;5027765;28;20232;-70
2021/03/15 13:04:24;;;;;;;16.47;3.10;;;;;;;;;;5039410;28;20288;-69
2021/03/15 13:06:51;;;;;;;22.70;2.60;;;;;;;;;;5036030;28;20193;-69
2021/03/15 13:09:16;;;;;;;18.07;2.50;;;;;;;;;;5036439;28;20188;-69
2021/03/15 13:11:42;;;;;;;22.63;3.40;;;;;;;;;;5027654;28;20181;-69
2021/03/15 13:14:07;;;;;;;22.37;3.00;;;;;;;;;;5039486;28;20594;-69
2021/03/15 13:16:33;;;;;;;19.03;3.10;;;;;;;;;;5037222;28;20269;-69
2021/03/15 13:18:58;;;;;;;16.87;2.13;;;;;;;;;;5030831;28;20284;-69
2021/03/15 13:21:24;;;;;;;15.17;2.27;;;;;;;;;;5038730;28;20280;-68
2021/03/15 13:23:49;;;;;;;14.90;2.50;;;;;;;;;;5027800;28;20206;-69
2021/03/15 13:26:14;;;;;;;14.77;2.00;;;;;;;;;;5039514;28;20689;-68
2021/03/15 13:28:40;;;;;;;13.90;2.03;;;;;;;;;;5033228;28;20185;-68
2021/03/15 13:31:06;;;;;;;9.85;1.70;;;;;;;;;;5032495;28;20699;-69
2021/03/15 13:33:31;;;;;;;9.35;1.58;;;;;;;;;;5029990;28;20209;-69
2021/03/15 13:35:59;;;;;;;10.82;1.25;;;;;;;;;;5034757;28;20181;-69
2021/03/15 13:38:24;;;;;;;8.57;1.40;;;;;;;;;;5026319;28;21370;-69
2021/03/15 13:40:50;;;;;;;14.43;2.10;;;;;;;;;;5036535;28;20265;-69
2021/03/15 13:43:15;;;;;;;14.80;2.27;;;;;;;;;;5037222;28;20296;-69
2021/03/15 13:45:41;;;;;;;15.83;2.53;;;;;;;;;;5036043;28;20217;-69
2021/03/15 13:48:08;;;;;;;12.10;2.47;;;;;;;;;;5043693;28;20235;-69
2021/03/15 13:50:35;;;;;;;16.77;2.00;;;;;;;;;;5034581;28;20193;-68
2021/03/15 13:53:00;;;;;;;14.87;2.10;;;;;;;;;;5039692;28;20629;-69
2021/03/15 13:55:26;;;;;;;11.70;1.77;;;;;;;;;;5028835;28;20193;-69
2021/03/15 13:57:52;;;;;;;18.23;3.60;;;;;;;;;;5029367;28;20660;-69
2021/03/15 14:00:18;;;;;;;11.53;1.87;;;;;;;;;;5024246;28;20390;-68
2021/03/15 14:02:43;;;;;;;11.83;2.60;;;;;;;;;;5038299;28;20221;-69
2021/03/15 14:05:09;;;;;;;15.60;1.70;;;;;;;;;;5022028;28;20332;-68
2021/03/15 14:07:34;;;;;;;21.25;2.17;;;;;;;;;;5032590;28;20193;-69
2021/03/15 14:10:00;;;;;;;11.87;2.30;;;;;;;;;;5028950;28;20577;-69
2021/03/15 14:12:25;;;;;;;12.80;2.00;;;;;;;;;;5042357;28;20273;-69
2021/03/15 14:14:51;;;;;;;17.13;2.00;;;;;;;;;;5041876;28;20675;-69
2021/03/15 14:17:18;;;;;;;19.30;2.28;;;;;;;;;;5031866;28;20255;-69
2021/03/15 14:19:43;;;;;;;11.88;2.47;;;;;;;;;;5045629;28;20193;-70
2021/03/15 14:22:08;;;;;;;16.60;2.33;;;;;;;;;;5035397;28;20224;-69
2021/03/15 14:24:34;;;;;;;14.45;2.33;;;;;;;;;;5042930;28;20193;-68
2021/03/15 14:26:59;;;;;;;9.80;2.03;;;;;;;;;;5039402;28;20271;-68
2021/03/15 14:29:25;;;;;;;9.32;1.42;;;;;;;;;;5042178;28;20182;-68
2021/03/15 14:31:50;;;;;;;10.32;1.98;;;;;;;;;;5033050;28;21417;-69
2021/03/15 14:34:15;;;;;;;13.90;2.22;;;;;;;;;;5040596;28;20239;-69
2021/03/15 14:36:41;;;;;;;13.68;2.35;;;;;;;;;;5027607;28;20185;-69
2021/03/15 14:39:06;;;;;;;13.35;2.05;;;;;;;;;;5033350;28;20220;-68
2021/03/15 14:41:32;;;;;;;18.92;2.28;;;;;;;;;;5035644;28;20190;-69
2021/03/15 14:43:57;;;;;;;17.70;2.50;;;;;;;;;;5040664;28;20235;-68
2021/03/15 14:46:23;;;;;;;14.07;2.40;;;;;;;;;;5046471;28;20182;-69